sensor_id;sensor_type;location;lat;lon;timestamp;pressure;altitude;pressure_sealevel;temperature;humidity
69257;BME280;56376;53.356;-1.748;2024-02-23T00:01:49;96035.19;;;2.84;100.00
69257;BME280;56376;53.356;-1.748;2024-02-23T00:04:15;96031.97;;;2.80;100.00
69257;BME280;56376;53.356;-1.748;2024-02-23T00:06:40;96025.06;;;2.81;100.00
69257;BME280;56376;53.356;-1.748;2024-02-23T00:09:06;96038.78;;;2.81;100.00
69257;BME280;56376;53.356;-1.748;2024-02-23T00:11:31;96038.88;;;2.80;100.00
69257;BME280;56376;53.356;-1.748;2024-02-23T00:14:05;96032.25;;;2.76;100.00
69257;BME280;56376;53.356;-1.748;2024-02-23T00:16:30;96039.16;;;2.75;100.00
69257;BME280;56376;53.356;-1.748;2024-02-23T00:18:56;96035.84;;;2.73;100.00
69257;BME280;56376;53.356;-1.748;2024-02-23T00:21:21;96030.78;;;2.72;100.00
69257;BME280;56376;53.356;-1.748;2024-02-23T00:23:47;96035.09;;;2.71;100.00
69257;BME280;56376;53.356;-1.748;2024-02-23T00:26:12;96048.00;;;2.71;100.00
69257;BME280;56376;53.356;-1.748;2024-02-23T00:28:37;96048.91;;;2.70;100.00
69257;BME280;56376;53.356;-1.748;2024-02-23T00:31:03;96049.81;;;2.69;100.00
69257;BME280;56376;53.356;-1.748;2024-02-23T00:33:28;96045.69;;;2.67;100.00
69257;BME280;56376;53.356;-1.748;2024-02-23T00:35:54;96038.16;;;2.64;100.00
69257;BME280;56376;53.356;-1.748;2024-02-23T00:38:19;96041.81;;;2.59;100.00
69257;BME280;56376;53.356;-1.748;2024-02-23T00:40:45;96046.97;;;2.59;100.00
69257;BME280;56376;53.356;-1.748;2024-02-23T00:43:10;96046.97;;;2.59;100.00
69257;BME280;56376;53.356;-1.748;2024-02-23T00:45:36;96046.16;;;2.59;100.00
69257;BME280;56376;53.356;-1.748;2024-02-23T00:48:01;96035.03;;;2.58;100.00
69257;BME280;56376;53.356;-1.748;2024-02-23T00:50:27;96037.50;;;2.60;100.00
69257;BME280;56376;53.356;-1.748;2024-02-23T00:52:53;96029.94;;;2.57;100.00
69257;BME280;56376;53.356;-1.748;2024-02-23T00:55:19;96036.84;;;2.56;100.00
69257;BME280;56376;53.356;-1.748;2024-02-23T00:57:44;96031.69;;;2.56;100.00
69257;BME280;56376;53.356;-1.748;2024-02-23T01:00:11;96032.72;;;2.54;100.00
69257;BME280;56376;53.356;-1.748;2024-02-23T01:02:38;96032.72;;;2.54;100.00
69257;BME280;56376;53.356;-1.748;2024-02-23T01:05:04;96026.66;;;2.55;100.00
69257;BME280;56376;53.356;-1.748;2024-02-23T01:07:30;96027.47;;;2.55;100.00
69257;BME280;56376;53.356;-1.748;2024-02-23T01:09:55;96030.06;;;2.55;100.00
69257;BME280;56376;53.356;-1.748;2024-02-23T01:12:22;96035.41;;;2.52;100.00
69257;BME280;56376;53.356;-1.748;2024-02-23T01:14:47;96025.81;;;2.54;100.00
69257;BME280;56376;53.356;-1.748;2024-02-23T01:17:14;96028.38;;;2.54;100.00
69257;BME280;56376;53.356;-1.748;2024-02-23T01:19:41;96031.69;;;2.56;100.00
69257;BME280;56376;53.356;-1.748;2024-02-23T01:22:07;96030.97;;;2.54;100.00
69257;BME280;56376;53.356;-1.748;2024-02-23T01:24:32;96033.53;;;2.54;100.00
69257;BME280;56376;53.356;-1.748;2024-02-23T01:26:58;96030.25;;;2.52;100.00
69257;BME280;56376;53.356;-1.748;2024-02-23T01:29:25;96028.50;;;2.53;100.00
69257;BME280;56376;53.356;-1.748;2024-02-23T01:31:51;96030.31;;;2.51;100.00
69257;BME280;56376;53.356;-1.748;2024-02-23T01:34:17;96027.75;;;2.51;100.00
69257;BME280;56376;53.356;-1.748;2024-02-23T01:36:43;96034.53;;;2.52;100.00
69257;BME280;56376;53.356;-1.748;2024-02-23T01:39:08;96032.72;;;2.54;100.00
69257;BME280;56376;53.356;-1.748;2024-02-23T01:41:35;96029.41;;;2.52;100.00
69257;BME280;56376;53.356;-1.748;2024-02-23T01:44:00;96033.91;;;2.48;100.00
69257;BME280;56376;53.356;-1.748;2024-02-23T01:46:26;96033.91;;;2.48;100.00
69257;BME280;56376;53.356;-1.748;2024-02-23T01:48:51;96034.72;;;2.49;100.00
69257;BME280;56376;53.356;-1.748;2024-02-23T01:51:17;96034.09;;;2.45;100.00
69257;BME280;56376;53.356;-1.748;2024-02-23T01:53:42;96025.44;;;2.46;100.00
69257;BME280;56376;53.356;-1.748;2024-02-23T01:56:09;96034.94;;;2.46;100.00
69257;BME280;56376;53.356;-1.748;2024-02-23T01:58:37;96026.25;;;2.47;100.00
69257;BME280;56376;53.356;-1.748;2024-02-23T02:01:02;96032.34;;;2.46;100.00
69257;BME280;56376;53.356;-1.748;2024-02-23T02:03:28;96023.78;;;2.45;100.00
69257;BME280;56376;53.356;-1.748;2024-02-23T02:05:55;96017.91;;;2.43;100.00
69257;BME280;56376;53.356;-1.748;2024-02-23T02:08:25;96022.13;;;2.44;100.00
69257;BME280;56376;53.356;-1.748;2024-02-23T02:10:50;96020.47;;;2.43;100.00
69257;BME280;56376;53.356;-1.748;2024-02-23T02:13:16;96004.19;;;2.43;100.00
69257;BME280;56376;53.356;-1.748;2024-02-23T02:15:41;96016.91;;;2.46;100.00
69257;BME280;56376;53.356;-1.748;2024-02-23T02:18:09;96012.75;;;2.43;100.00
69257;BME280;56376;53.356;-1.748;2024-02-23T02:20:36;96009.25;;;2.44;100.00
69257;BME280;56376;53.356;-1.748;2024-02-23T02:23:02;96012.00;;;2.41;100.00
69257;BME280;56376;53.356;-1.748;2024-02-23T02:25:27;96011.25;;;2.39;100.00
69257;BME280;56376;53.356;-1.748;2024-02-23T02:27:53;96006.97;;;2.40;100.00
69257;BME280;56376;53.356;-1.748;2024-02-23T02:30:19;96008.53;;;2.42;100.00
69257;BME280;56376;53.356;-1.748;2024-02-23T02:32:45;96004.28;;;2.41;100.00
69257;BME280;56376;53.356;-1.748;2024-02-23T02:35:11;96009.44;;;2.41;100.00
69257;BME280;56376;53.356;-1.748;2024-02-23T02:37:37;96004.41;;;2.40;100.00
69257;BME280;56376;53.356;-1.748;2024-02-23T02:40:03;95998.38;;;2.39;100.00
69257;BME280;56376;53.356;-1.748;2024-02-23T02:42:29;95997.38;;;2.42;100.00
69257;BME280;56376;53.356;-1.748;2024-02-23T02:44:54;96003.38;;;2.42;100.00
69257;BME280;56376;53.356;-1.748;2024-02-23T02:47:20;95995.72;;;2.41;100.00
69257;BME280;56376;53.356;-1.748;2024-02-23T02:49:45;95995.09;;;2.37;100.00
69257;BME280;56376;53.356;-1.748;2024-02-23T02:52:11;95992.59;;;2.35;100.00
69257;BME280;56376;53.356;-1.748;2024-02-23T02:54:36;95989.09;;;2.36;100.00
69257;BME280;56376;53.356;-1.748;2024-02-23T02:57:02;95990.84;;;2.36;100.00
69257;BME280;56376;53.356;-1.748;2024-02-23T02:59:27;95995.09;;;2.37;100.00
69257;BME280;56376;53.356;-1.748;2024-02-23T03:01:53;96000.25;;;2.37;100.00
69257;BME280;56376;53.356;-1.748;2024-02-23T03:04:18;95984.97;;;2.34;100.00
69257;BME280;56376;53.356;-1.748;2024-02-23T03:06:44;95990.09;;;2.34;100.00
69257;BME280;56376;53.356;-1.748;2024-02-23T03:09:09;95997.75;;;2.35;100.00
69257;BME280;56376;53.356;-1.748;2024-02-23T03:11:35;95994.44;;;2.33;100.00
69257;BME280;56376;53.356;-1.748;2024-02-23T03:14:01;95995.25;;;2.34;100.00
69257;BME280;56376;53.356;-1.748;2024-02-23T03:16:26;95996.13;;;2.34;100.00
69257;BME280;56376;53.356;-1.748;2024-02-23T03:18:52;95999.50;;;2.35;100.00
69257;BME280;56376;53.356;-1.748;2024-02-23T03:21:19;96000.41;;;2.34;100.00
69257;BME280;56376;53.356;-1.748;2024-02-23T03:23:45;95994.25;;;2.36;100.00
69257;BME280;56376;53.356;-1.748;2024-02-23T03:26:10;95994.25;;;2.36;100.00
69257;BME280;56376;53.356;-1.748;2024-02-23T03:28:36;96003.00;;;2.34;100.00
69257;BME280;56376;53.356;-1.748;2024-02-23T03:31:01;95994.25;;;2.36;100.00
69257;BME280;56376;53.356;-1.748;2024-02-23T03:33:27;96019.09;;;2.37;100.00
69257;BME280;56376;53.356;-1.748;2024-02-23T03:35:52;96012.19;;;2.38;100.00
69257;BME280;56376;53.356;-1.748;2024-02-23T03:38:18;96008.69;;;2.39;100.00
69257;BME280;56376;53.356;-1.748;2024-02-23T03:40:44;96008.53;;;2.42;100.00
69257;BME280;56376;53.356;-1.748;2024-02-23T03:43:09;96017.91;;;2.43;100.00
69257;BME280;56376;53.356;-1.748;2024-02-23T03:45:34;96005.03;;;2.43;100.00
69257;BME280;56376;53.356;-1.748;2024-02-23T03:48:02;96001.50;;;2.44;100.00
69257;BME280;56376;53.356;-1.748;2024-02-23T03:50:28;95998.03;;;2.45;100.00
69257;BME280;56376;53.356;-1.748;2024-02-23T03:52:54;95999.50;;;2.49;100.00
69257;BME280;56376;53.356;-1.748;2024-02-23T03:55:19;96008.91;;;2.50;100.00
69257;BME280;56376;53.356;-1.748;2024-02-23T03:57:45;95997.09;;;2.46;100.00
69257;BME280;56376;53.356;-1.748;2024-02-23T04:00:11;96004.00;;;2.46;100.00
69257;BME280;56376;53.356;-1.748;2024-02-23T04:02:38;96013.13;;;2.51;100.00
69257;BME280;56376;53.356;-1.748;2024-02-23T04:05:04;96009.63;;;2.52;100.00
69257;BME280;56376;53.356;-1.748;2024-02-23T04:07:29;96012.94;;;2.54;100.00
69257;BME280;56376;53.356;-1.748;2024-02-23T04:09:55;96000.78;;;2.56;100.00
69257;BME280;56376;53.356;-1.748;2024-02-23T04:12:21;96003.34;;;2.56;100.00
69257;BME280;56376;53.356;-1.748;2024-02-23T04:14:47;96005.94;;;2.56;100.00
69257;BME280;56376;53.356;-1.748;2024-02-23T04:17:12;96009.44;;;2.55;100.00
69257;BME280;56376;53.356;-1.748;2024-02-23T04:19:38;95995.53;;;2.58;100.00
69257;BME280;56376;53.356;-1.748;2024-02-23T04:22:05;96014.31;;;2.60;100.00
69257;BME280;56376;53.356;-1.748;2024-02-23T04:24:31;96005.75;;;2.59;100.00
69257;BME280;56376;53.356;-1.748;2024-02-23T04:26:56;96001.31;;;2.62;100.00
69257;BME280;56376;53.356;-1.748;2024-02-23T04:29:22;96005.47;;;2.64;100.00
69257;BME280;56376;53.356;-1.748;2024-02-23T04:31:47;96005.38;;;2.66;100.00
69257;BME280;56376;53.356;-1.748;2024-02-23T04:34:14;96010.47;;;2.67;100.00
69257;BME280;56376;53.356;-1.748;2024-02-23T04:36:40;96006.13;;;2.68;100.00
69257;BME280;56376;53.356;-1.748;2024-02-23T04:39:05;96026.63;;;2.69;100.00
69257;BME280;56376;53.356;-1.748;2024-02-23T04:41:31;96020.47;;;2.72;100.00
69257;BME280;56376;53.356;-1.748;2024-02-23T04:43:57;96016.97;;;2.73;100.00
69257;BME280;56376;53.356;-1.748;2024-02-23T04:46:25;96014.28;;;2.74;100.00
69257;BME280;56376;53.356;-1.748;2024-02-23T04:48:51;96025.47;;;2.75;100.00
69257;BME280;56376;53.356;-1.748;2024-02-23T04:51:16;96022.88;;;2.75;100.00
69257;BME280;56376;53.356;-1.748;2024-02-23T04:53:42;96017.53;;;2.78;100.00
69257;BME280;56376;53.356;-1.748;2024-02-23T04:56:07;96018.34;;;2.78;100.00
69257;BME280;56376;53.356;-1.748;2024-02-23T04:58:33;96014.13;;;2.77;100.00
69257;BME280;56376;53.356;-1.748;2024-02-23T05:00:58;96012.38;;;2.78;100.00
69257;BME280;56376;53.356;-1.748;2024-02-23T05:03:24;96023.59;;;2.77;100.00
69257;BME280;56376;53.356;-1.748;2024-02-23T05:05:49;96016.72;;;2.77;100.00
69257;BME280;56376;53.356;-1.748;2024-02-23T05:08:19;96029.59;;;2.77;100.00
69257;BME280;56376;53.356;-1.748;2024-02-23T05:10:46;96036.41;;;2.78;100.00
69257;BME280;56376;53.356;-1.748;2024-02-23T05:13:12;96022.69;;;2.78;100.00
69257;BME280;56376;53.356;-1.748;2024-02-23T05:15:37;96028.75;;;2.77;100.00
69257;BME280;56376;53.356;-1.748;2024-02-23T05:18:03;96028.59;;;2.80;100.00
69257;BME280;56376;53.356;-1.748;2024-02-23T05:20:29;96025.88;;;2.81;100.00
69257;BME280;56376;53.356;-1.748;2024-02-23T05:22:55;96017.34;;;2.81;100.00
69257;BME280;56376;53.356;-1.748;2024-02-23T05:25:20;96022.56;;;2.79;100.00
69257;BME280;56376;53.356;-1.748;2024-02-23T05:27:46;96026.00;;;2.80;100.00
69257;BME280;56376;53.356;-1.748;2024-02-23T05:30:12;96034.63;;;2.79;100.00
69257;BME280;56376;53.356;-1.748;2024-02-23T05:32:38;96024.25;;;2.80;100.00
69257;BME280;56376;53.356;-1.748;2024-02-23T05:35:05;96039.72;;;2.80;100.00
69257;BME280;56376;53.356;-1.748;2024-02-23T05:37:30;96028.59;;;2.80;100.00
69257;BME280;56376;53.356;-1.748;2024-02-23T05:39:56;96026.00;;;2.80;100.00
69257;BME280;56376;53.356;-1.748;2024-02-23T05:42:22;96038.69;;;2.83;100.00
69257;BME280;56376;53.356;-1.748;2024-02-23T05:44:48;96031.03;;;2.81;100.00
69257;BME280;56376;53.356;-1.748;2024-02-23T05:47:14;96044.75;;;2.82;100.00
69257;BME280;56376;53.356;-1.748;2024-02-23T05:49:39;96034.63;;;2.79;100.00
69257;BME280;56376;53.356;-1.748;2024-02-23T05:52:05;96042.19;;;2.82;100.00
69257;BME280;56376;53.356;-1.748;2024-02-23T05:54:31;96031.97;;;2.80;100.00
69257;BME280;56376;53.356;-1.748;2024-02-23T05:56:56;96039.59;;;2.82;100.00
69257;BME280;56376;53.356;-1.748;2024-02-23T05:59:22;96036.13;;;2.83;100.00
69257;BME280;56376;53.356;-1.748;2024-02-23T06:01:47;96042.00;;;2.85;100.00
69257;BME280;56376;53.356;-1.748;2024-02-23T06:04:13;96031.03;;;2.81;100.00
69257;BME280;56376;53.356;-1.748;2024-02-23T06:06:41;96032.72;;;2.83;100.00
69257;BME280;56376;53.356;-1.748;2024-02-23T06:09:07;96045.41;;;2.86;100.00
69257;BME280;56376;53.356;-1.748;2024-02-23T06:11:33;96041.91;;;2.87;100.00
69257;BME280;56376;53.356;-1.748;2024-02-23T06:13:59;96047.06;;;2.87;100.00
69257;BME280;56376;53.356;-1.748;2024-02-23T06:16:24;96046.97;;;2.88;100.00
69257;BME280;56376;53.356;-1.748;2024-02-23T06:18:50;96051.31;;;2.88;100.00
69257;BME280;56376;53.356;-1.748;2024-02-23T06:21:17;96046.25;;;2.86;100.00
69257;BME280;56376;53.356;-1.748;2024-02-23T06:23:45;96047.06;;;2.87;100.00
69257;BME280;56376;53.356;-1.748;2024-02-23T06:26:11;96058.09;;;2.89;100.00
69257;BME280;56376;53.356;-1.748;2024-02-23T06:28:38;96049.56;;;2.88;100.00
69257;BME280;56376;53.356;-1.748;2024-02-23T06:31:06;96054.72;;;2.88;100.00
69257;BME280;56376;53.356;-1.748;2024-02-23T06:33:32;96058.19;;;2.87;100.00
69257;BME280;56376;53.356;-1.748;2024-02-23T06:35:58;96047.88;;;2.87;100.00
69257;BME280;56376;53.356;-1.748;2024-02-23T06:38:23;96063.19;;;2.90;100.00
69257;BME280;56376;53.356;-1.748;2024-02-23T06:40:49;96057.28;;;2.88;100.00
69257;BME280;56376;53.356;-1.748;2024-02-23T06:43:15;96059.03;;;2.88;100.00
69257;BME280;56376;53.356;-1.748;2024-02-23T06:45:41;96058.94;;;2.89;100.00
69257;BME280;56376;53.356;-1.748;2024-02-23T06:48:06;96054.72;;;2.88;100.00
69257;BME280;56376;53.356;-1.748;2024-02-23T06:50:32;96054.44;;;2.93;100.00
69257;BME280;56376;53.356;-1.748;2024-02-23T06:52:58;96056.16;;;2.92;100.00
69257;BME280;56376;53.356;-1.748;2024-02-23T06:55:23;96059.59;;;2.93;100.00
69257;BME280;56376;53.356;-1.748;2024-02-23T06:57:48;96062.25;;;2.91;100.00
69257;BME280;56376;53.356;-1.748;2024-02-23T07:00:14;96062.16;;;2.93;100.00
69257;BME280;56376;53.356;-1.748;2024-02-23T07:02:40;96063.72;;;2.95;100.00
69257;BME280;56376;53.356;-1.748;2024-02-23T07:05:06;96061.16;;;2.95;100.00
69257;BME280;56376;53.356;-1.748;2024-02-23T07:07:32;96062.78;;;2.96;100.00
69257;BME280;56376;53.356;-1.748;2024-02-23T07:09:59;96065.50;;;2.95;100.00
69257;BME280;56376;53.356;-1.748;2024-02-23T07:12:25;96069.72;;;2.96;100.00
69257;BME280;56376;53.356;-1.748;2024-02-23T07:14:53;96073.09;;;2.96;100.00
69257;BME280;56376;53.356;-1.748;2024-02-23T07:17:19;96078.25;;;2.96;100.00
69257;BME280;56376;53.356;-1.748;2024-02-23T07:19:44;96084.16;;;2.98;100.00
69257;BME280;56376;53.356;-1.748;2024-02-23T07:22:10;96084.09;;;3.00;100.00
69257;BME280;56376;53.356;-1.748;2024-02-23T07:24:40;96087.38;;;3.02;100.00
69257;BME280;56376;53.356;-1.748;2024-02-23T07:27:06;96091.63;;;3.03;100.00
69257;BME280;56376;53.356;-1.748;2024-02-23T07:29:31;96103.69;;;3.02;100.00
69257;BME280;56376;53.356;-1.748;2024-02-23T07:31:57;96101.81;;;3.04;100.00
69257;BME280;56376;53.356;-1.748;2024-02-23T07:34:22;96106.97;;;3.04;100.00
69257;BME280;56376;53.356;-1.748;2024-02-23T07:36:51;96105.34;;;3.03;100.00
69257;BME280;56376;53.356;-1.748;2024-02-23T07:39:16;96114.00;;;3.02;100.00
69257;BME280;56376;53.356;-1.748;2024-02-23T07:41:42;96127.63;;;3.04;100.00
69257;BME280;56376;53.356;-1.748;2024-02-23T07:44:07;96125.97;;;3.03;100.00
69257;BME280;56376;53.356;-1.748;2024-02-23T07:46:33;96121.75;;;3.02;100.00
69257;BME280;56376;53.356;-1.748;2024-02-23T07:48:58;96131.13;;;3.03;100.00
69257;BME280;56376;53.356;-1.748;2024-02-23T07:51:24;96142.91;;;3.08;100.00
69257;BME280;56376;53.356;-1.748;2024-02-23T07:53:49;96137.22;;;3.02;100.00
69257;BME280;56376;53.356;-1.748;2024-02-23T07:56:15;96143.19;;;3.03;100.00
69257;BME280;56376;53.356;-1.748;2024-02-23T07:58:40;96139.78;;;3.02;100.00
69257;BME280;56376;53.356;-1.748;2024-02-23T08:01:06;96143.94;;;3.05;100.00
69257;BME280;56376;53.356;-1.748;2024-02-23T08:03:31;96153.31;;;3.06;100.00
69257;BME280;56376;53.356;-1.748;2024-02-23T08:05:57;96151.56;;;3.07;100.00
69257;BME280;56376;53.356;-1.748;2024-02-23T08:08:22;96148.97;;;3.07;100.00
69257;BME280;56376;53.356;-1.748;2024-02-23T08:10:49;96152.31;;;3.09;100.00
69257;BME280;56376;53.356;-1.748;2024-02-23T08:13:14;96148.78;;;3.10;100.00
69257;BME280;56376;53.356;-1.748;2024-02-23T08:15:40;96146.94;;;3.12;100.00
69257;BME280;56376;53.356;-1.748;2024-02-23T08:18:06;96153.78;;;3.13;100.00
69257;BME280;56376;53.356;-1.748;2024-02-23T08:20:31;96153.88;;;3.11;100.00
69257;BME280;56376;53.356;-1.748;2024-02-23T08:22:57;96150.09;;;3.17;100.00
69257;BME280;56376;53.356;-1.748;2024-02-23T08:25:22;96161.06;;;3.20;100.00
69257;BME280;56376;53.356;-1.748;2024-02-23T08:27:48;96154.69;;;3.26;100.00
69257;BME280;56376;53.356;-1.748;2024-02-23T08:30:14;96162.91;;;3.33;100.00
69257;BME280;56376;53.356;-1.748;2024-02-23T08:32:40;96159.13;;;3.38;100.00
69257;BME280;56376;53.356;-1.748;2024-02-23T08:35:06;96168.97;;;3.46;100.00
69257;BME280;56376;53.356;-1.748;2024-02-23T08:37:32;96181.47;;;3.52;100.00
69257;BME280;56376;53.356;-1.748;2024-02-23T08:39:57;96178.81;;;3.54;100.00
69257;BME280;56376;53.356;-1.748;2024-02-23T08:42:23;96175.28;;;3.55;100.00
69257;BME280;56376;53.356;-1.748;2024-02-23T08:44:48;96179.63;;;3.54;100.00
69257;BME280;56376;53.356;-1.748;2024-02-23T08:47:14;96184.34;;;3.47;100.00
69257;BME280;56376;53.356;-1.748;2024-02-23T08:49:39;96190.16;;;3.51;100.00
69257;BME280;56376;53.356;-1.748;2024-02-23T08:52:05;96179.16;;;3.47;100.00
69257;BME280;56376;53.356;-1.748;2024-02-23T08:54:31;96186.00;;;3.49;100.00
69257;BME280;56376;53.356;-1.748;2024-02-23T08:56:57;96191.91;;;3.51;100.00
69257;BME280;56376;53.356;-1.748;2024-02-23T08:59:22;96193.63;;;3.50;100.00
69257;BME280;56376;53.356;-1.748;2024-02-23T09:01:48;96192.72;;;3.51;100.00
69257;BME280;56376;53.356;-1.748;2024-02-23T09:04:13;96183.97;;;3.54;100.00
69257;BME280;56376;53.356;-1.748;2024-02-23T09:06:39;96178.63;;;3.57;100.00
69257;BME280;56376;53.356;-1.748;2024-02-23T09:09:05;96187.66;;;3.64;100.00
69257;BME280;56376;53.356;-1.748;2024-02-23T09:11:30;96195.53;;;3.75;100.00
69257;BME280;56376;53.356;-1.748;2024-02-23T09:13:56;96201.91;;;3.84;100.00
69257;BME280;56376;53.356;-1.748;2024-02-23T09:16:21;96216.16;;;3.89;100.00
69257;BME280;56376;53.356;-1.748;2024-02-23T09:18:50;96209.25;;;3.90;100.00
69257;BME280;56376;53.356;-1.748;2024-02-23T09:21:15;96196.53;;;3.87;100.00
69257;BME280;56376;53.356;-1.748;2024-02-23T09:23:41;96210.28;;;3.87;100.00
69257;BME280;56376;53.356;-1.748;2024-02-23T09:26:09;96207.88;;;3.84;100.00
69257;BME280;56376;53.356;-1.748;2024-02-23T09:28:36;96210.56;;;3.83;100.00
69257;BME280;56376;53.356;-1.748;2024-02-23T09:31:02;96209.09;;;3.79;100.00
69257;BME280;56376;53.356;-1.748;2024-02-23T09:33:28;96221.00;;;3.81;100.00
69257;BME280;56376;53.356;-1.748;2024-02-23T09:35:54;96229.47;;;3.83;100.00
69257;BME280;56376;53.356;-1.748;2024-02-23T09:38:19;96218.94;;;3.86;100.00
69257;BME280;56376;53.356;-1.748;2024-02-23T09:40:45;96223.19;;;3.87;100.00
69257;BME280;56376;53.356;-1.748;2024-02-23T09:43:12;96219.69;;;3.88;100.00
69257;BME280;56376;53.356;-1.748;2024-02-23T09:45:37;96228.34;;;3.87;100.00
69257;BME280;56376;53.356;-1.748;2024-02-23T09:48:03;96223.91;;;3.89;100.00
69257;BME280;56376;53.356;-1.748;2024-02-23T09:50:30;96231.47;;;3.93;100.00
69257;BME280;56376;53.356;-1.748;2024-02-23T09:52:58;96235.72;;;3.94;100.00
69257;BME280;56376;53.356;-1.748;2024-02-23T09:55:24;96231.31;;;3.96;100.00
69257;BME280;56376;53.356;-1.748;2024-02-23T09:57:52;96238.84;;;3.99;100.00
69257;BME280;56376;53.356;-1.748;2024-02-23T10:00:23;96236.28;;;3.99;100.00
69257;BME280;56376;53.356;-1.748;2024-02-23T10:02:49;96238.56;;;4.03;100.00
69257;BME280;56376;53.356;-1.748;2024-02-23T10:05:15;96243.25;;;4.11;100.00
69257;BME280;56376;53.356;-1.748;2024-02-23T10:07:42;96246.63;;;4.26;100.00
69257;BME280;56376;53.356;-1.748;2024-02-23T10:10:08;96253.56;;;4.38;100.00
69257;BME280;56376;53.356;-1.748;2024-02-23T10:12:35;96253.63;;;4.51;100.00
69257;BME280;56376;53.356;-1.748;2024-02-23T10:15:02;96253.88;;;4.61;100.00
69257;BME280;56376;53.356;-1.748;2024-02-23T10:17:30;96258.84;;;4.64;100.00
69257;BME280;56376;53.356;-1.748;2024-02-23T10:19:55;96256.06;;;4.67;100.00
69257;BME280;56376;53.356;-1.748;2024-02-23T10:22:23;96262.88;;;4.68;100.00
69257;BME280;56376;53.356;-1.748;2024-02-23T10:24:50;96270.34;;;4.72;100.00
69257;BME280;56376;53.356;-1.748;2024-02-23T10:27:17;96267.75;;;4.72;100.00
69257;BME280;56376;53.356;-1.748;2024-02-23T10:29:42;96280.41;;;4.77;100.00
69257;BME280;56376;53.356;-1.748;2024-02-23T10:32:11;96276.78;;;4.80;100.00
69257;BME280;56376;53.356;-1.748;2024-02-23T10:34:42;96275.34;;;4.88;100.00
69257;BME280;56376;53.356;-1.748;2024-02-23T10:37:08;96285.69;;;4.88;100.00
69257;BME280;56376;53.356;-1.748;2024-02-23T10:39:38;96282.28;;;4.88;100.00
69257;BME280;56376;53.356;-1.748;2024-02-23T10:42:04;96286.63;;;4.87;100.00
69257;BME280;56376;53.356;-1.748;2024-02-23T10:44:32;96293.56;;;4.87;100.00
69257;BME280;56376;53.356;-1.748;2024-02-23T10:46:58;96292.63;;;4.88;100.00
69257;BME280;56376;53.356;-1.748;2024-02-23T10:49:28;96298.00;;;4.85;100.00
69257;BME280;56376;53.356;-1.748;2024-02-23T10:51:55;96305.22;;;4.80;100.00
69257;BME280;56376;53.356;-1.748;2024-02-23T10:54:21;96293.41;;;4.75;100.00
69257;BME280;56376;53.356;-1.748;2024-02-23T10:56:49;96298.06;;;4.70;100.00
69257;BME280;56376;53.356;-1.748;2024-02-23T10:59:15;96302.41;;;4.70;100.00
69257;BME280;56376;53.356;-1.748;2024-02-23T11:01:54;96306.94;;;4.66;100.00
69257;BME280;56376;53.356;-1.748;2024-02-23T11:04:23;96308.56;;;4.54;100.00
69257;BME280;56376;53.356;-1.748;2024-02-23T11:06:50;96310.06;;;4.44;100.00
69257;BME280;56376;53.356;-1.748;2024-02-23T11:09:16;96310.25;;;4.41;100.00
69257;BME280;56376;53.356;-1.748;2024-02-23T11:11:56;96313.66;;;4.42;100.00
69257;BME280;56376;53.356;-1.748;2024-02-23T11:14:34;96316.88;;;4.45;100.00
69257;BME280;56376;53.356;-1.748;2024-02-23T11:17:00;96299.13;;;4.53;100.00
69257;BME280;56376;53.356;-1.748;2024-02-23T11:19:37;96301.09;;;4.77;100.00
69257;BME280;56376;53.356;-1.748;2024-02-23T11:22:03;96312.63;;;5.11;100.00
69257;BME280;56376;53.356;-1.748;2024-02-23T11:24:31;96315.09;;;5.53;100.00
69257;BME280;56376;53.356;-1.748;2024-02-23T11:27:00;96320.16;;;5.93;100.00
69257;BME280;56376;53.356;-1.748;2024-02-23T11:29:33;96326.06;;;6.20;100.00
69257;BME280;56376;53.356;-1.748;2024-02-23T11:32:00;96310.97;;;6.38;100.00
69257;BME280;56376;53.356;-1.748;2024-02-23T11:34:30;96317.16;;;6.48;100.00
69257;BME280;56376;53.356;-1.748;2024-02-23T11:36:56;96328.09;;;6.65;100.00
69257;BME280;56376;53.356;-1.748;2024-02-23T11:39:25;96325.94;;;6.83;100.00
69257;BME280;56376;53.356;-1.748;2024-02-23T11:41:51;96317.97;;;6.97;100.00
69257;BME280;56376;53.356;-1.748;2024-02-23T11:44:17;96318.03;;;7.08;100.00
69257;BME280;56376;53.356;-1.748;2024-02-23T11:46:43;96325.34;;;7.03;100.00
69257;BME280;56376;53.356;-1.748;2024-02-23T11:49:10;96322.84;;;7.02;100.00
69257;BME280;56376;53.356;-1.748;2024-02-23T11:51:36;96326.38;;;7.01;100.00
69257;BME280;56376;53.356;-1.748;2024-02-23T11:54:01;96330.84;;;6.99;100.00
69257;BME280;56376;53.356;-1.748;2024-02-23T11:56:29;96332.50;;;7.00;100.00
69257;BME280;56376;53.356;-1.748;2024-02-23T11:58:55;96323.34;;;7.07;100.00
69257;BME280;56376;53.356;-1.748;2024-02-23T12:01:21;96324.06;;;7.09;100.00
69257;BME280;56376;53.356;-1.748;2024-02-23T12:03:47;96331.13;;;7.07;100.00
69257;BME280;56376;53.356;-1.748;2024-02-23T12:06:14;96327.22;;;7.01;100.00
69257;BME280;56376;53.356;-1.748;2024-02-23T12:08:41;96335.22;;;6.98;100.00
69257;BME280;56376;53.356;-1.748;2024-02-23T12:11:08;96333.69;;;6.96;100.00
69257;BME280;56376;53.356;-1.748;2024-02-23T12:13:38;96328.69;;;6.92;100.00
69257;BME280;56376;53.356;-1.748;2024-02-23T12:16:04;96335.78;;;6.90;100.00
69257;BME280;56376;53.356;-1.748;2024-02-23T12:18:33;96332.13;;;6.93;100.00
69257;BME280;56376;53.356;-1.748;2024-02-23T12:21:04;96337.09;;;6.96;100.00
69257;BME280;56376;53.356;-1.748;2024-02-23T12:23:43;96326.25;;;7.02;100.00
69257;BME280;56376;53.356;-1.748;2024-02-23T12:26:10;96329.00;;;7.12;100.00
69257;BME280;56376;53.356;-1.748;2024-02-23T12:28:38;96332.72;;;7.21;100.00
69257;BME280;56376;53.356;-1.748;2024-02-23T12:31:05;96329.06;;;7.23;100.00
69257;BME280;56376;53.356;-1.748;2024-02-23T12:33:40;96329.44;;;7.30;100.00
69257;BME280;56376;53.356;-1.748;2024-02-23T12:36:07;96325.78;;;7.32;100.00
69257;BME280;56376;53.356;-1.748;2024-02-23T12:38:33;96332.75;;;7.43;100.00
69257;BME280;56376;53.356;-1.748;2024-02-23T12:41:00;96330.88;;;7.45;100.00
69257;BME280;56376;53.356;-1.748;2024-02-23T12:43:26;96326.63;;;7.44;100.00
69257;BME280;56376;53.356;-1.748;2024-02-23T12:45:55;96331.69;;;7.46;100.00